createdAt,value
2023-05-14T00:01:05.598Z,2.80
2023-05-14T00:03:32.629Z,2.80
2023-05-14T00:05:59.677Z,3.10
2023-05-14T00:08:26.556Z,2.80
2023-05-14T00:10:53.511Z,3.10
2023-05-14T00:13:20.306Z,3.20
2023-05-14T00:15:47.257Z,2.90
2023-05-14T00:18:14.469Z,3.30
2023-05-14T00:20:41.313Z,3.00
2023-05-14T00:23:08.376Z,2.90
2023-05-14T00:25:36.447Z,3.00
2023-05-14T00:28:04.139Z,2.70
2023-05-14T00:30:31.078Z,2.60
2023-05-14T00:32:58.037Z,2.50
2023-05-14T00:35:24.965Z,2.80
2023-05-14T00:37:52.040Z,2.90
2023-05-14T00:40:19.277Z,2.70
2023-05-14T00:42:46.094Z,2.60
2023-05-14T00:45:13.149Z,2.70
2023-05-14T00:47:40.294Z,2.90
2023-05-14T00:50:08.266Z,2.80
2023-05-14T00:52:35.161Z,2.20
2023-05-14T00:55:04.463Z,2.20
2023-05-14T00:57:31.415Z,2.50
2023-05-14T00:59:58.881Z,2.40
2023-05-14T01:02:26.598Z,2.60
2023-05-14T01:04:53.702Z,2.40
2023-05-14T01:07:23.727Z,2.20
2023-05-14T01:10:04.317Z,2.50
2023-05-14T01:12:39.191Z,2.10
2023-05-14T01:15:20.298Z,2.20
2023-05-14T01:17:55.751Z,2.30
2023-05-14T01:20:23.319Z,2.20
2023-05-14T01:22:50.490Z,2.20
2023-05-14T01:25:17.610Z,2.30
2023-05-14T01:27:59.815Z,2.20
2023-05-14T01:30:37.526Z,2.30
2023-05-14T01:33:10.701Z,2.30
2023-05-14T01:35:37.554Z,2.30
2023-05-14T01:38:05.639Z,2.90
2023-05-14T01:40:32.798Z,3.10
2023-05-14T01:43:00.514Z,2.80
2023-05-14T01:45:27.515Z,3.10
2023-05-14T01:47:54.496Z,2.40
2023-05-14T01:50:21.652Z,2.70
2023-05-14T01:52:49.076Z,2.30
2023-05-14T01:55:16.156Z,2.60
2023-05-14T01:57:43.074Z,2.40
2023-05-14T02:00:10.950Z,2.40
2023-05-14T02:02:44.063Z,2.50
2023-05-14T02:05:12.120Z,3.00
2023-05-14T02:07:39.087Z,2.50
2023-05-14T02:10:06.862Z,2.40
2023-05-14T02:12:34.098Z,2.20
2023-05-14T02:15:01.229Z,2.30
2023-05-14T02:17:28.122Z,2.00
2023-05-14T02:19:55.163Z,2.00
2023-05-14T02:22:22.023Z,2.30
2023-05-14T02:24:49.982Z,2.20
2023-05-14T02:27:17.953Z,2.50
2023-05-14T02:29:45.056Z,2.80
2023-05-14T02:32:12.000Z,2.50
2023-05-14T02:34:39.365Z,2.90
2023-05-14T02:37:06.634Z,2.30
2023-05-14T02:39:33.639Z,2.30
2023-05-14T02:42:00.652Z,2.20
2023-05-14T02:44:27.636Z,2.70
2023-05-14T02:46:54.513Z,2.80
2023-05-14T02:49:22.056Z,2.90
2023-05-14T02:51:48.998Z,2.80
2023-05-14T02:54:16.891Z,2.20
2023-05-14T02:56:43.829Z,2.40
2023-05-14T02:59:10.901Z,2.50
2023-05-14T03:01:38.159Z,2.90
2023-05-14T03:04:05.759Z,2.60
2023-05-14T03:06:32.643Z,2.60
2023-05-14T03:08:59.486Z,3.00
2023-05-14T03:11:26.359Z,3.90
2023-05-14T03:13:53.419Z,3.10
2023-05-14T03:16:20.528Z,2.40
2023-05-14T03:18:47.482Z,3.10
2023-05-14T03:21:14.570Z,2.60
2023-05-14T03:23:41.724Z,2.60
2023-05-14T03:26:08.675Z,2.90
2023-05-14T03:28:35.643Z,2.60
2023-05-14T03:31:02.573Z,3.00
2023-05-14T03:33:31.376Z,2.30
2023-05-14T03:35:58.430Z,2.30
2023-05-14T03:38:25.243Z,2.60
2023-05-14T03:40:52.246Z,2.70
2023-05-14T03:43:19.174Z,2.80
2023-05-14T03:45:47.160Z,2.50
2023-05-14T03:48:17.036Z,2.40
2023-05-14T03:50:44.096Z,2.80
2023-05-14T03:53:11.927Z,3.50
2023-05-14T03:55:38.820Z,2.40
2023-05-14T03:58:14.238Z,3.00
2023-05-14T04:00:42.331Z,3.30
2023-05-14T04:03:11.387Z,3.70
2023-05-14T04:05:38.424Z,3.30
2023-05-14T04:08:06.554Z,4.10
2023-05-14T04:10:33.567Z,3.30
2023-05-14T04:13:00.815Z,3.00
2023-05-14T04:15:31.958Z,3.00
2023-05-14T04:17:58.924Z,2.90
2023-05-14T04:20:26.033Z,3.90
2023-05-14T04:22:54.137Z,4.40
2023-05-14T04:25:21.087Z,3.40
2023-05-14T04:27:48.055Z,2.90
2023-05-14T04:30:15.411Z,2.70
2023-05-14T04:32:42.784Z,3.00
2023-05-14T04:35:11.268Z,3.20
2023-05-14T04:37:38.170Z,2.50
2023-05-14T04:40:06.844Z,3.00
2023-05-14T04:42:34.062Z,2.70
2023-05-14T04:45:01.213Z,3.20
2023-05-14T04:47:28.286Z,2.80
2023-05-14T04:49:55.522Z,2.50
2023-05-14T04:52:22.470Z,2.90
2023-05-14T04:54:49.350Z,2.80
2023-05-14T04:57:16.689Z,2.60
2023-05-14T04:59:43.573Z,3.00
2023-05-14T05:02:10.580Z,3.10
2023-05-14T05:04:37.426Z,3.10
2023-05-14T05:07:05.826Z,3.80
2023-05-14T05:09:32.634Z,3.60
2023-05-14T05:11:59.512Z,3.30
2023-05-14T05:14:27.210Z,3.40
2023-05-14T05:16:54.023Z,3.70
2023-05-14T05:19:26.555Z,4.40
2023-05-14T05:21:59.496Z,4.30
2023-05-14T05:24:26.552Z,3.70
2023-05-14T05:26:54.123Z,3.70
2023-05-14T05:29:21.090Z,3.80
2023-05-14T05:31:48.603Z,4.00
2023-05-14T05:34:15.686Z,4.30
2023-05-14T05:36:42.533Z,3.60
2023-05-14T05:39:09.583Z,3.60
2023-05-14T05:41:36.374Z,2.70
2023-05-14T05:44:03.278Z,2.90
2023-05-14T05:46:30.135Z,3.00
2023-05-14T05:48:57.201Z,3.50
2023-05-14T05:51:24.273Z,3.10
2023-05-14T05:53:51.396Z,2.70
2023-05-14T05:56:18.345Z,2.70
2023-05-14T05:58:45.298Z,2.40
2023-05-14T06:01:12.249Z,2.20
2023-05-14T06:03:39.322Z,2.40
2023-05-14T06:06:06.762Z,2.50
2023-05-14T06:08:33.922Z,2.30
2023-05-14T06:11:00.873Z,2.70
2023-05-14T06:13:27.822Z,3.20
2023-05-14T06:15:54.639Z,2.80
2023-05-14T06:18:21.450Z,3.00
2023-05-14T06:20:48.374Z,2.40
2023-05-14T06:23:15.227Z,3.00
2023-05-14T06:25:42.173Z,2.80
2023-05-14T06:28:09.123Z,2.80
2023-05-14T06:30:36.078Z,3.10
2023-05-14T06:33:02.941Z,3.10
2023-05-14T06:35:29.898Z,3.70
2023-05-14T06:37:57.031Z,2.90
2023-05-14T06:40:24.118Z,2.70
2023-05-14T06:42:51.263Z,2.90
2023-05-14T06:45:18.193Z,2.50
2023-05-14T06:47:45.101Z,3.40
2023-05-14T06:50:12.105Z,3.70
2023-05-14T06:52:38.953Z,3.00
2023-05-14T06:55:06.415Z,2.70
2023-05-14T06:57:34.380Z,2.90
2023-05-14T07:00:03.250Z,3.00
2023-05-14T07:02:30.972Z,3.20
2023-05-14T07:04:57.995Z,3.30
2023-05-14T07:07:24.875Z,3.00
2023-05-14T07:09:51.908Z,3.00
2023-05-14T07:12:18.837Z,3.60
2023-05-14T07:14:46.842Z,3.60
2023-05-14T07:17:13.914Z,3.10
2023-05-14T07:19:41.064Z,2.90
2023-05-14T07:22:07.878Z,2.90
2023-05-14T07:24:34.831Z,2.70
2023-05-14T07:27:02.014Z,2.80
2023-05-14T07:29:30.474Z,2.80
2023-05-14T07:31:57.328Z,2.70
2023-05-14T07:34:24.279Z,2.30
2023-05-14T07:36:52.457Z,2.80
2023-05-14T07:39:19.312Z,2.60
2023-05-14T07:41:46.177Z,2.50
2023-05-14T07:44:13.414Z,2.60
2023-05-14T07:46:41.145Z,2.20
2023-05-14T07:49:08.130Z,2.60
2023-05-14T07:51:35.046Z,2.90
2023-05-14T07:54:02.130Z,2.50
2023-05-14T07:56:29.085Z,2.10
2023-05-14T07:58:56.759Z,3.20
2023-05-14T08:01:23.808Z,1.90
2023-05-14T08:03:50.972Z,2.40
2023-05-14T08:06:18.300Z,2.30
2023-05-14T08:08:45.285Z,2.40
2023-05-14T08:11:12.158Z,2.30
2023-05-14T08:13:39.179Z,2.60
2023-05-14T08:16:07.249Z,2.00
2023-05-14T08:18:34.234Z,2.40
2023-05-14T08:21:03.319Z,2.80
2023-05-14T08:23:30.713Z,2.20
2023-05-14T08:25:57.727Z,2.40
2023-05-14T08:28:24.558Z,2.50
2023-05-14T08:30:51.712Z,2.30
2023-05-14T08:33:18.719Z,2.80
2023-05-14T08:35:45.563Z,3.00
2023-05-14T08:38:12.482Z,2.90
2023-05-14T08:40:40.072Z,2.60
2023-05-14T08:43:06.907Z,2.20
2023-05-14T08:45:34.473Z,2.40
2023-05-14T08:48:02.227Z,2.70
2023-05-14T08:50:30.647Z,2.40
2023-05-14T08:52:58.076Z,2.60
2023-05-14T08:55:26.304Z,2.90
2023-05-14T08:57:53.312Z,2.50
2023-05-14T09:00:20.668Z,2.30
2023-05-14T09:02:47.751Z,1.90
2023-05-14T09:05:14.710Z,1.90
2023-05-14T09:07:41.735Z,2.00
2023-05-14T09:10:09.404Z,2.00
2023-05-14T09:12:36.371Z,2.20
2023-05-14T09:15:03.720Z,2.60
2023-05-14T09:17:30.871Z,2.00
2023-05-14T09:19:57.747Z,1.90
2023-05-14T09:22:24.690Z,2.30
2023-05-14T09:25:14.873Z,1.90
2023-05-14T09:27:41.790Z,2.40
2023-05-14T09:30:10.764Z,1.80
2023-05-14T09:32:44.166Z,1.90
2023-05-14T09:35:12.060Z,2.00
2023-05-14T09:37:42.726Z,2.30
2023-05-14T09:40:11.044Z,2.40
2023-05-14T09:42:38.412Z,2.00
2023-05-14T09:45:09.954Z,2.30
2023-05-14T09:47:38.035Z,2.70
2023-05-14T09:50:05.741Z,2.20
2023-05-14T09:52:32.928Z,2.70
2023-05-14T09:55:00.272Z,2.40
2023-05-14T09:57:27.351Z,2.50
2023-05-14T09:59:54.258Z,2.90
2023-05-14T10:02:21.080Z,1.80
2023-05-14T10:04:49.201Z,2.40
2023-05-14T10:07:16.803Z,2.20
2023-05-14T10:09:44.024Z,2.30
2023-05-14T10:12:11.173Z,2.60
2023-05-14T10:14:41.592Z,2.40
2023-05-14T10:17:10.307Z,2.50
2023-05-14T10:19:37.453Z,2.30
2023-05-14T10:22:05.593Z,2.40
2023-05-14T10:24:33.079Z,2.70
2023-05-14T10:27:00.246Z,2.60
2023-05-14T10:29:38.239Z,2.20
2023-05-14T10:32:07.163Z,2.20
2023-05-14T10:34:38.532Z,2.10
2023-05-14T10:37:07.275Z,2.00
2023-05-14T10:39:57.346Z,2.70
2023-05-14T10:42:29.044Z,2.10
2023-05-14T10:44:58.948Z,2.60
2023-05-14T10:47:27.800Z,2.30
2023-05-14T10:49:56.837Z,2.30
2023-05-14T10:52:23.935Z,1.90
2023-05-14T10:55:00.656Z,2.40
2023-05-14T10:57:32.439Z,2.40
2023-05-14T11:00:00.406Z,2.10
2023-05-14T11:02:28.651Z,2.00
2023-05-14T11:04:57.616Z,2.20
2023-05-14T11:07:27.852Z,2.20
2023-05-14T11:10:00.475Z,2.80
2023-05-14T11:12:28.158Z,2.50
2023-05-14T11:14:57.265Z,2.30
2023-05-14T11:17:25.964Z,2.40
2023-05-14T11:19:52.939Z,2.30
2023-05-14T11:22:19.861Z,2.60
2023-05-14T11:24:46.768Z,2.30
2023-05-14T11:27:14.269Z,3.90
2023-05-14T11:29:46.759Z,3.00
2023-05-14T11:32:14.686Z,2.40
2023-05-14T11:34:42.292Z,2.30
2023-05-14T11:37:10.465Z,2.50
2023-05-14T11:39:40.594Z,2.60
2023-05-14T11:42:17.152Z,2.40
2023-05-14T11:44:44.833Z,2.30
2023-05-14T11:47:11.890Z,2.10
2023-05-14T11:49:38.795Z,2.20
2023-05-14T11:52:06.711Z,2.30
2023-05-14T11:54:34.038Z,2.00
2023-05-14T11:57:07.508Z,2.70
2023-05-14T11:59:34.498Z,2.00
2023-05-14T12:02:02.371Z,2.10
2023-05-14T12:04:29.525Z,2.40
2023-05-14T12:06:58.665Z,2.40
2023-05-14T12:09:26.176Z,2.00
2023-05-14T12:11:53.100Z,2.50
2023-05-14T12:14:23.654Z,2.50
2023-05-14T12:16:51.061Z,2.70
2023-05-14T12:19:21.031Z,2.40
2023-05-14T12:21:48.346Z,2.40
2023-05-14T12:24:17.655Z,3.30
2023-05-14T12:26:49.057Z,2.60
2023-05-14T12:29:16.149Z,2.70
2023-05-14T12:31:47.726Z,3.50
2023-05-14T12:34:14.965Z,6.00
2023-05-14T12:36:42.381Z,2.80
2023-05-14T12:39:09.791Z,2.50
2023-05-14T12:41:36.772Z,2.60
2023-05-14T12:44:04.582Z,2.80
2023-05-14T12:46:31.468Z,2.10
2023-05-14T12:48:58.482Z,3.50
2023-05-14T12:51:25.477Z,2.60
2023-05-14T12:53:54.465Z,2.10
2023-05-14T12:56:22.159Z,2.40
2023-05-14T12:58:49.177Z,2.70
2023-05-14T13:01:16.827Z,2.50
2023-05-14T13:03:45.175Z,2.20
2023-05-14T13:06:14.517Z,2.10
2023-05-14T13:08:42.691Z,2.90
2023-05-14T13:11:09.787Z,2.50
2023-05-14T13:13:36.734Z,2.20
2023-05-14T13:16:03.778Z,2.30
2023-05-14T13:18:30.794Z,2.30
2023-05-14T13:21:00.796Z,2.50
2023-05-14T13:23:27.622Z,2.20
2023-05-14T13:25:54.490Z,2.20
2023-05-14T13:28:21.348Z,2.70
2023-05-14T13:31:04.145Z,2.20
2023-05-14T13:33:31.141Z,2.70
2023-05-14T13:35:57.952Z,2.80
2023-05-14T13:38:24.866Z,2.50
2023-05-14T13:40:51.953Z,3.40
2023-05-14T13:43:18.844Z,2.30
2023-05-14T13:45:45.928Z,2.70
2023-05-14T13:48:12.897Z,2.30
2023-05-14T13:50:39.732Z,2.30
2023-05-14T13:53:06.578Z,2.20
2023-05-14T13:55:33.432Z,2.40
2023-05-14T13:58:02.100Z,3.40
2023-05-14T14:00:28.921Z,2.80
2023-05-14T14:02:55.870Z,2.70
2023-05-14T14:05:24.032Z,2.20
2023-05-14T14:07:52.922Z,2.70
2023-05-14T14:10:21.842Z,2.70
2023-05-14T14:12:48.842Z,2.40
2023-05-14T14:15:15.792Z,2.10
2023-05-14T14:17:42.937Z,2.50
2023-05-14T14:20:10.498Z,2.50
2023-05-14T14:22:37.470Z,2.50
2023-05-14T14:25:04.923Z,2.70
2023-05-14T14:27:34.063Z,2.30
2023-05-14T14:30:00.911Z,3.30
2023-05-14T14:32:27.749Z,2.60
2023-05-14T14:34:54.888Z,2.80
2023-05-14T14:37:23.174Z,2.70
2023-05-14T14:39:50.259Z,2.40
2023-05-14T14:42:17.090Z,2.50
2023-05-14T14:44:44.021Z,2.40
2023-05-14T14:47:10.885Z,2.40
2023-05-14T14:49:37.787Z,2.70
2023-05-14T14:52:04.992Z,2.60
2023-05-14T14:54:31.870Z,2.60
2023-05-14T14:56:58.817Z,2.80
2023-05-14T14:59:25.819Z,2.40
2023-05-14T15:01:55.403Z,2.50
2023-05-14T15:04:22.267Z,11.50
2023-05-14T15:06:49.142Z,4.10
2023-05-14T15:09:16.449Z,2.60
2023-05-14T15:11:44.484Z,3.10
2023-05-14T15:14:11.346Z,2.50
2023-05-14T15:16:38.419Z,2.40
2023-05-14T15:19:05.496Z,2.10
2023-05-14T15:21:32.916Z,2.90
2023-05-14T15:23:59.984Z,3.10
2023-05-14T15:26:27.066Z,2.80
2023-05-14T15:28:54.060Z,2.90
2023-05-14T15:31:21.477Z,2.80
2023-05-14T15:33:48.781Z,2.90
2023-05-14T15:36:15.634Z,2.80
2023-05-14T15:38:42.630Z,2.00
2023-05-14T15:41:09.441Z,2.50
2023-05-14T15:43:36.385Z,2.40
2023-05-14T15:46:03.227Z,2.70
2023-05-14T15:48:30.131Z,3.00
2023-05-14T15:50:56.971Z,2.90
2023-05-14T15:53:23.888Z,3.30
2023-05-14T15:55:50.930Z,3.00
2023-05-14T15:58:17.985Z,2.40
2023-05-14T16:00:44.836Z,3.10
2023-05-14T16:03:12.506Z,2.80
2023-05-14T16:05:39.503Z,4.60
2023-05-14T16:08:06.781Z,3.00
2023-05-14T16:10:33.622Z,3.00
2023-05-14T16:13:00.573Z,3.20
2023-05-14T16:15:27.437Z,3.70
2023-05-14T16:17:54.355Z,2.90
2023-05-14T16:20:21.375Z,2.80
2023-05-14T16:22:48.333Z,2.80
2023-05-14T16:25:15.283Z,3.30
2023-05-14T16:27:42.332Z,3.20
2023-05-14T16:30:09.989Z,3.20
2023-05-14T16:32:36.878Z,2.70
2023-05-14T16:35:04.505Z,3.10
2023-05-14T16:37:31.408Z,3.00
2023-05-14T16:39:58.266Z,3.10
2023-05-14T16:42:25.359Z,3.20
2023-05-14T16:44:52.309Z,3.50
2023-05-14T16:47:19.178Z,3.50
2023-05-14T16:49:46.034Z,3.10
2023-05-14T16:52:12.954Z,3.00
2023-05-14T16:54:39.767Z,3.10
2023-05-14T16:57:06.752Z,3.30
2023-05-14T16:59:33.627Z,3.00
2023-05-14T17:02:00.805Z,3.20
2023-05-14T17:04:27.989Z,5.30
2023-05-14T17:06:55.999Z,4.10
2023-05-14T17:09:22.898Z,4.30
2023-05-14T17:11:49.717Z,5.10
2023-05-14T17:14:16.752Z,5.00
2023-05-14T17:16:43.598Z,4.90
2023-05-14T17:19:10.736Z,5.40
2023-05-14T17:21:37.903Z,5.60
2023-05-14T17:24:05.539Z,3.90
2023-05-14T17:26:32.428Z,3.90
2023-05-14T17:28:59.373Z,3.50
2023-05-14T17:31:26.290Z,3.60
2023-05-14T17:33:53.166Z,3.50
2023-05-14T17:36:20.121Z,4.70
2023-05-14T17:38:47.271Z,4.80
2023-05-14T17:41:14.133Z,5.10
2023-05-14T17:43:41.103Z,5.30
2023-05-14T17:46:08.044Z,5.30
2023-05-14T17:48:34.995Z,4.90
2023-05-14T17:51:02.043Z,3.40
2023-05-14T17:53:28.869Z,4.30
2023-05-14T17:55:55.842Z,5.50
2023-05-14T17:58:22.682Z,4.00
2023-05-14T18:00:49.573Z,3.70
2023-05-14T18:03:16.634Z,4.10
2023-05-14T18:05:43.724Z,3.90
2023-05-14T18:08:10.730Z,4.30
2023-05-14T18:10:37.769Z,4.20
2023-05-14T18:13:04.665Z,3.90
2023-05-14T18:15:31.824Z,3.80
2023-05-14T18:17:58.787Z,3.40
2023-05-14T18:20:25.719Z,3.60
2023-05-14T18:22:52.642Z,4.60
2023-05-14T18:25:19.537Z,5.20
2023-05-14T18:27:47.247Z,4.10
2023-05-14T18:30:14.932Z,4.20
2023-05-14T18:32:43.727Z,4.10
2023-05-14T18:35:11.472Z,3.50
2023-05-14T18:37:38.431Z,3.90
2023-05-14T18:40:07.075Z,3.90
2023-05-14T18:42:34.602Z,4.40
2023-05-14T18:45:01.685Z,4.70
2023-05-14T18:47:28.737Z,4.50
2023-05-14T18:49:58.254Z,4.60
2023-05-14T18:52:26.381Z,6.00
2023-05-14T18:54:54.869Z,5.60
2023-05-14T18:57:21.958Z,6.70
2023-05-14T18:59:48.963Z,7.20
2023-05-14T19:02:16.440Z,7.00
2023-05-14T19:04:52.357Z,6.50
2023-05-14T19:07:20.816Z,7.10
2023-05-14T19:09:47.773Z,7.40
2023-05-14T19:12:16.360Z,7.00
2023-05-14T19:14:43.369Z,6.90
2023-05-14T19:17:10.276Z,7.50
2023-05-14T19:19:37.968Z,7.60
2023-05-14T19:22:05.563Z,6.80
2023-05-14T19:24:32.382Z,6.60
2023-05-14T19:26:59.247Z,6.20
2023-05-14T19:29:26.200Z,6.60
2023-05-14T19:31:53.129Z,6.50
2023-05-14T19:34:19.996Z,7.50
2023-05-14T19:36:46.866Z,6.10
2023-05-14T19:39:13.780Z,6.00
2023-05-14T19:41:40.774Z,5.90
2023-05-14T19:44:07.624Z,5.90
2023-05-14T19:46:34.573Z,5.50
2023-05-14T19:49:01.480Z,6.20
2023-05-14T19:51:28.379Z,5.00
2023-05-14T19:53:55.260Z,5.10
2023-05-14T19:56:23.189Z,5.30
2023-05-14T19:58:51.278Z,5.70
2023-05-14T20:01:19.171Z,5.00
2023-05-14T20:03:47.075Z,5.10
2023-05-14T20:06:14.046Z,5.70
2023-05-14T20:08:41.281Z,5.10
2023-05-14T20:11:08.178Z,5.60
2023-05-14T20:13:36.556Z,5.10
2023-05-14T20:16:03.395Z,5.50
2023-05-14T20:18:30.532Z,4.70
2023-05-14T20:20:57.450Z,4.90
2023-05-14T20:23:24.345Z,5.20
2023-05-14T20:25:51.358Z,4.80
2023-05-14T20:28:18.212Z,4.10
2023-05-14T20:30:45.094Z,4.60
2023-05-14T20:33:13.466Z,4.40
2023-05-14T20:35:43.886Z,4.50
2023-05-14T20:38:12.884Z,5.00
2023-05-14T20:40:40.025Z,4.20
2023-05-14T20:43:06.894Z,4.40
2023-05-14T20:45:33.758Z,4.60
2023-05-14T20:48:00.834Z,4.20
2023-05-14T20:50:28.109Z,4.40
2023-05-14T20:52:55.440Z,4.30
2023-05-14T20:55:22.557Z,4.20
2023-05-14T20:57:49.770Z,4.50
2023-05-14T21:00:17.093Z,4.70
2023-05-14T21:02:44.074Z,4.90
2023-05-14T21:05:11.174Z,4.60
2023-05-14T21:07:39.520Z,5.30
2023-05-14T21:10:08.364Z,4.80
2023-05-14T21:12:35.256Z,5.40
2023-05-14T21:15:02.107Z,4.80
2023-05-14T21:17:29.030Z,4.60
2023-05-14T21:19:56.081Z,4.50
2023-05-14T21:22:22.953Z,4.50
2023-05-14T21:24:51.126Z,4.70
2023-05-14T21:27:17.972Z,5.00
2023-05-14T21:29:47.721Z,5.30
2023-05-14T21:32:14.748Z,6.60
2023-05-14T21:34:41.633Z,7.00
2023-05-14T21:37:08.519Z,7.00
2023-05-14T21:39:35.604Z,6.50
2023-05-14T21:42:02.428Z,6.20
2023-05-14T21:44:29.229Z,5.70
2023-05-14T21:46:56.094Z,6.00
2023-05-14T21:49:22.920Z,5.90
2023-05-14T21:51:53.286Z,7.50
2023-05-14T21:54:21.094Z,6.90
2023-05-14T21:56:47.977Z,6.80
2023-05-14T21:59:14.840Z,5.60
2023-05-14T22:02:04.784Z,6.30
2023-05-14T22:04:28.771Z,6.00
2023-05-14T22:06:56.026Z,6.00
2023-05-14T22:09:22.893Z,5.90
2023-05-14T22:11:49.808Z,6.30
2023-05-14T22:14:16.761Z,7.00
2023-05-14T22:16:44.073Z,6.00
2023-05-14T22:19:11.519Z,6.00
2023-05-14T22:23:54.752Z,5.70
2023-05-14T22:26:24.654Z,6.90
2023-05-14T22:28:52.832Z,5.80
2023-05-14T22:31:19.847Z,6.50
2023-05-14T22:33:46.837Z,6.20
2023-05-14T22:36:13.793Z,6.30
2023-05-14T22:38:41.365Z,7.00
2023-05-14T22:41:08.206Z,7.30
2023-05-14T22:43:35.254Z,7.90
2023-05-14T22:46:02.240Z,7.40
2023-05-14T22:48:29.208Z,7.00
2023-05-14T22:50:56.050Z,7.10
2023-05-14T22:53:24.393Z,7.50
2023-05-14T22:55:52.074Z,7.80
2023-05-14T22:58:19.214Z,8.60
2023-05-14T23:00:46.303Z,7.80
2023-05-14T23:03:13.244Z,6.60
2023-05-14T23:05:40.154Z,7.40
2023-05-14T23:08:07.112Z,6.80
2023-05-14T23:10:35.623Z,7.40
2023-05-14T23:13:04.198Z,6.90
2023-05-14T23:15:31.155Z,8.00
2023-05-14T23:17:58.078Z,6.90
2023-05-14T23:20:25.167Z,6.10
2023-05-14T23:22:52.597Z,6.90
2023-05-14T23:25:20.078Z,6.90
2023-05-14T23:27:47.034Z,5.70
2023-05-14T23:30:14.086Z,6.50
2023-05-14T23:32:41.074Z,6.80
2023-05-14T23:35:08.521Z,6.70
2023-05-14T23:37:40.366Z,6.00
2023-05-14T23:40:09.060Z,5.60
2023-05-14T23:42:36.068Z,6.20
2023-05-14T23:45:02.972Z,5.70
2023-05-14T23:47:29.848Z,6.00
2023-05-14T23:49:56.868Z,6.00
2023-05-14T23:52:23.806Z,6.20
2023-05-14T23:54:50.683Z,7.40
2023-05-14T23:57:17.556Z,6.30
2023-05-14T23:59:44.382Z,7.90
